createdAt,value
2018-05-11T00:01:44.839Z,100054
2018-05-11T00:04:11.001Z,100060
2018-05-11T00:06:37.938Z,100061
2018-05-11T00:09:04.092Z,100066
2018-05-11T00:11:30.322Z,100070
2018-05-11T00:13:56.525Z,100072
2018-05-11T00:16:23.013Z,100067
2018-05-11T00:18:49.227Z,100057
2018-05-11T00:21:16.148Z,100060
2018-05-11T00:23:43.824Z,100064
2018-05-11T00:26:09.985Z,100063
2018-05-11T00:28:36.902Z,100074
2018-05-11T00:31:03.057Z,100069
2018-05-11T00:33:29.251Z,100075
2018-05-11T00:35:55.456Z,100077
2018-05-11T00:38:21.693Z,100084
2018-05-11T00:40:47.871Z,100082
2018-05-11T00:43:14.828Z,100082
2018-05-11T00:45:41.013Z,100086
2018-05-11T00:48:07.222Z,100089
2018-05-11T00:50:33.446Z,100090
2018-05-11T00:52:59.660Z,100097
2018-05-11T00:55:44.405Z,100097
2018-05-11T00:58:10.585Z,100097
2018-05-11T01:00:36.789Z,100098
2018-05-11T01:03:02.985Z,100101
2018-05-11T01:05:29.195Z,100101
2018-05-11T01:07:55.401Z,100104
2018-05-11T01:10:21.585Z,100108
2018-05-11T01:12:47.766Z,100107
2018-05-11T01:15:13.973Z,100111
2018-05-11T01:17:40.190Z,100110
2018-05-11T01:20:06.377Z,100118
2018-05-11T01:22:32.549Z,100123
2018-05-11T01:24:58.719Z,100125
2018-05-11T01:27:24.879Z,100132
2018-05-11T01:29:51.789Z,100130
2018-05-11T01:32:18.466Z,100130
2018-05-11T01:34:44.634Z,100136
2018-05-11T01:37:10.822Z,100138
2018-05-11T01:39:37.012Z,100141
2018-05-11T01:42:03.265Z,100144
2018-05-11T01:44:29.481Z,100145
2018-05-11T01:46:55.672Z,100148
2018-05-11T01:49:22.289Z,100150
2018-05-11T01:51:48.496Z,100155
2018-05-11T01:54:16.200Z,100159
2018-05-11T01:56:42.373Z,100163
2018-05-11T01:59:09.298Z,100167
2018-05-11T02:01:36.211Z,100168
2018-05-11T02:04:02.385Z,100165
2018-05-11T02:06:28.598Z,100161
2018-05-11T02:08:54.832Z,100163
2018-05-11T02:11:21.448Z,100164
2018-05-11T02:13:47.608Z,100168
2018-05-11T02:16:13.755Z,100165
2018-05-11T02:18:40.791Z,100160
2018-05-11T02:21:06.916Z,100170
2018-05-11T02:23:33.094Z,100173
2018-05-11T02:26:00.088Z,100179
2018-05-11T02:28:26.973Z,100175
2018-05-11T02:30:53.176Z,100181
2018-05-11T02:33:19.363Z,100185
2018-05-11T02:35:45.564Z,100189
2018-05-11T02:38:11.971Z,100198
2018-05-11T02:40:38.155Z,100201
2018-05-11T02:43:05.088Z,100198
2018-05-11T02:45:31.338Z,100205
2018-05-11T02:47:58.294Z,100201
2018-05-11T02:50:25.217Z,100201
2018-05-11T02:52:51.370Z,100197
2018-05-11T02:55:17.535Z,100202
2018-05-11T02:57:44.464Z,100196
2018-05-11T03:00:11.386Z,100203
2018-05-11T03:02:37.553Z,100210
2018-05-11T03:05:04.484Z,100211
2018-05-11T03:07:30.628Z,100216
2018-05-11T03:09:57.553Z,100216
2018-05-11T03:12:24.146Z,100226
2018-05-11T03:14:50.310Z,100221
2018-05-11T03:17:16.535Z,100226
2018-05-11T03:19:42.720Z,100218
2018-05-11T03:22:09.670Z,100228
2018-05-11T03:24:36.605Z,100235
2018-05-11T03:27:02.785Z,100239
2018-05-11T03:29:29.021Z,100244
2018-05-11T03:31:55.125Z,100243
2018-05-11T03:34:21.266Z,100241
2018-05-11T03:36:48.176Z,100247
2018-05-11T03:39:14.385Z,100252
2018-05-11T03:41:40.584Z,100252
2018-05-11T03:44:07.857Z,100253
2018-05-11T03:46:34.782Z,100262
2018-05-11T03:49:01.011Z,100263
2018-05-11T03:51:27.952Z,100265
2018-05-11T03:53:54.915Z,100263
2018-05-11T03:56:21.847Z,100260
2018-05-11T03:58:48.432Z,100261
2018-05-11T04:01:33.352Z,100264
2018-05-11T04:04:19.131Z,100269
2018-05-11T04:07:04.294Z,100270
2018-05-11T04:09:30.875Z,100270
2018-05-11T04:11:57.061Z,100281
2018-05-11T04:14:23.253Z,100280
2018-05-11T04:16:49.484Z,100284
2018-05-11T04:19:15.710Z,100287
2018-05-11T04:21:41.866Z,100294
2018-05-11T04:24:08.061Z,100302
2018-05-11T04:26:34.240Z,100306
2018-05-11T04:29:00.400Z,100310
2018-05-11T04:31:26.560Z,100312
2018-05-11T04:33:52.741Z,100314
2018-05-11T04:36:18.983Z,100314
2018-05-11T04:38:45.185Z,100311
2018-05-11T04:41:12.124Z,100318
2018-05-11T04:43:39.022Z,100316
2018-05-11T04:46:06.264Z,100324
2018-05-11T04:48:32.453Z,100326
2018-05-11T04:50:58.666Z,100326
2018-05-11T04:53:24.846Z,100332
2018-05-11T04:55:50.995Z,100333
2018-05-11T04:58:17.152Z,100335
2018-05-11T05:00:43.328Z,100337
2018-05-11T05:03:09.536Z,100340
2018-05-11T05:05:35.699Z,100340
2018-05-11T05:08:02.594Z,100340
2018-05-11T05:10:28.798Z,100344
2018-05-11T05:12:54.988Z,100347
2018-05-11T05:15:21.179Z,100348
2018-05-11T05:17:47.381Z,100347
2018-05-11T05:20:13.524Z,100351
2018-05-11T05:22:40.464Z,100362
2018-05-11T05:25:07.376Z,100365
2018-05-11T05:27:33.572Z,100371
2018-05-11T05:29:59.784Z,100374
2018-05-11T05:32:25.954Z,100374
2018-05-11T05:34:52.427Z,100382
2018-05-11T05:37:18.623Z,100376
2018-05-11T05:39:44.853Z,100378
2018-05-11T05:42:11.028Z,100378
2018-05-11T05:44:38.688Z,100381
2018-05-11T05:47:05.007Z,100379
2018-05-11T05:49:31.168Z,100382
2018-05-11T05:51:58.835Z,100378
2018-05-11T05:54:25.000Z,100386
2018-05-11T05:56:51.942Z,100384
2018-05-11T05:59:18.108Z,100387
2018-05-11T06:01:44.308Z,100394
2018-05-11T06:04:11.280Z,100390
2018-05-11T06:06:37.428Z,100393
2018-05-11T06:09:03.626Z,100390
2018-05-11T06:11:30.586Z,100394
2018-05-11T06:13:56.830Z,100397
2018-05-11T06:16:23.003Z,100393
2018-05-11T06:18:49.205Z,100394
2018-05-11T06:21:15.357Z,100396
2018-05-11T06:23:41.524Z,100397
2018-05-11T06:26:07.688Z,100399
2018-05-11T06:28:34.603Z,100404
2018-05-11T06:31:01.577Z,100402
2018-05-11T06:33:27.808Z,100403
2018-05-11T06:35:53.986Z,100405
2018-05-11T06:38:20.412Z,100410
2018-05-11T06:40:46.678Z,100410
2018-05-11T06:43:12.828Z,100410
2018-05-11T06:45:39.033Z,100410
2018-05-11T06:48:06.305Z,100408
2018-05-11T06:50:32.621Z,100407
2018-05-11T06:52:58.804Z,100403
2018-05-11T06:55:25.783Z,100404
2018-05-11T06:57:51.972Z,100406
2018-05-11T07:00:18.147Z,100411
2018-05-11T07:02:44.312Z,100408
2018-05-11T07:05:10.522Z,100408
2018-05-11T07:07:36.749Z,100405
2018-05-11T07:10:02.949Z,100402
2018-05-11T07:12:29.128Z,100406
2018-05-11T07:14:55.333Z,100401
2018-05-11T07:17:23.016Z,100398
2018-05-11T07:19:50.012Z,100393
2018-05-11T07:22:16.254Z,100393
2018-05-11T07:24:42.446Z,100396
2018-05-11T07:27:08.649Z,100398
2018-05-11T07:29:34.825Z,100396
2018-05-11T07:32:00.987Z,100398
2018-05-11T07:34:27.202Z,100394
2018-05-11T07:36:53.391Z,100397
2018-05-11T07:39:20.335Z,100399
2018-05-11T07:41:46.545Z,100396
2018-05-11T07:44:12.732Z,100401
2018-05-11T07:46:38.907Z,100398
2018-05-11T07:49:05.363Z,100397
2018-05-11T07:51:31.559Z,100393
2018-05-11T07:53:57.730Z,100390
2018-05-11T07:56:24.660Z,100386
2018-05-11T07:58:50.834Z,100386
2018-05-11T08:01:17.020Z,100385
2018-05-11T08:03:43.221Z,100383
2018-05-11T08:06:09.593Z,100389
2018-05-11T08:08:35.797Z,100388
2018-05-11T08:11:01.988Z,100384
2018-05-11T08:13:28.219Z,100373
2018-05-11T08:15:54.585Z,100372
2018-05-11T08:18:21.496Z,100373
2018-05-11T08:20:48.514Z,100373
2018-05-11T08:23:14.678Z,100377
2018-05-11T08:25:40.909Z,100380
2018-05-11T08:28:07.268Z,100384
2018-05-11T08:30:34.053Z,100386
2018-05-11T08:33:00.366Z,100382
2018-05-11T08:35:26.622Z,100381
2018-05-11T08:37:52.806Z,100384
2018-05-11T08:40:19.210Z,100385
2018-05-11T08:42:45.426Z,100389
2018-05-11T08:45:11.992Z,100381
2018-05-11T08:47:38.442Z,100386
2018-05-11T08:50:04.811Z,100384
2018-05-11T08:52:31.753Z,100379
2018-05-11T08:54:57.943Z,100377
2018-05-11T08:57:24.148Z,100382
2018-05-11T08:59:51.114Z,100382
2018-05-11T09:02:17.344Z,100378
2018-05-11T09:04:44.816Z,100380
2018-05-11T09:07:10.984Z,100379
2018-05-11T09:09:37.192Z,100383
2018-05-11T09:12:03.485Z,100373
2018-05-11T09:14:29.668Z,100375
2018-05-11T09:16:55.877Z,100376
2018-05-11T09:19:22.976Z,100378
2018-05-11T09:21:49.195Z,100369
2018-05-11T09:24:15.863Z,100373
2018-05-11T09:26:43.272Z,100373
2018-05-11T09:29:09.596Z,100374
2018-05-11T09:31:35.783Z,100375
2018-05-11T09:34:02.260Z,100380
2018-05-11T09:36:29.216Z,100374
2018-05-11T09:38:56.446Z,100374
2018-05-11T09:41:22.678Z,100372
2018-05-11T09:43:48.868Z,100372
2018-05-11T09:46:15.094Z,100377
2018-05-11T09:48:42.069Z,100373
2018-05-11T09:51:08.252Z,100380
2018-05-11T09:53:34.421Z,100373
2018-05-11T09:56:00.621Z,100386
2018-05-11T09:58:26.848Z,100373
2018-05-11T10:00:53.093Z,100383
2018-05-11T10:03:19.278Z,100385
2018-05-11T10:05:45.494Z,100388
2018-05-11T10:08:11.657Z,100382
2018-05-11T10:10:38.591Z,100386
2018-05-11T10:13:04.751Z,100391
2018-05-11T10:15:30.964Z,100387
2018-05-11T10:17:57.163Z,100387
2018-05-11T10:20:23.372Z,100386
2018-05-11T10:22:49.543Z,100387
2018-05-11T10:25:15.877Z,100396
2018-05-11T10:27:42.908Z,100389
2018-05-11T10:30:09.887Z,100395
2018-05-11T10:32:36.071Z,100395
2018-05-11T10:35:02.989Z,100392
2018-05-11T10:37:29.179Z,100396
2018-05-11T10:39:56.122Z,100395
2018-05-11T10:42:23.049Z,100394
2018-05-11T10:44:49.262Z,100392
2018-05-11T10:47:15.498Z,100398
2018-05-11T10:49:41.733Z,100392
2018-05-11T10:52:07.919Z,100403
2018-05-11T10:54:34.825Z,100402
2018-05-11T10:57:01.024Z,100401
2018-05-11T10:59:27.260Z,100398
2018-05-11T11:01:53.499Z,100407
2018-05-11T11:04:19.715Z,100400
2018-05-11T11:06:46.063Z,100408
2018-05-11T11:09:12.286Z,100408
2018-05-11T11:11:39.252Z,100401
2018-05-11T11:14:05.481Z,100398
2018-05-11T11:16:31.708Z,100400
2018-05-11T11:18:57.904Z,100399
2018-05-11T11:21:24.127Z,100389
2018-05-11T11:23:50.389Z,100394
2018-05-11T11:26:16.608Z,100383
2018-05-11T11:28:42.815Z,100382
2018-05-11T11:31:09.020Z,100381
2018-05-11T11:33:35.260Z,100380
2018-05-11T11:36:01.481Z,100381
2018-05-11T11:38:27.665Z,100381
2018-05-11T11:40:53.868Z,100373
2018-05-11T11:43:20.312Z,100367
2018-05-11T11:45:46.536Z,100367
2018-05-11T11:48:13.564Z,100363
2018-05-11T11:50:40.513Z,100371
2018-05-11T11:53:07.539Z,100365
2018-05-11T11:55:33.791Z,100369
2018-05-11T11:58:00.205Z,100370
2018-05-11T12:00:26.454Z,100368
2018-05-11T12:02:52.817Z,100365
2018-05-11T12:05:18.974Z,100367
2018-05-11T12:07:45.161Z,100367
2018-05-11T12:10:11.351Z,100370
2018-05-11T12:12:38.051Z,100369
2018-05-11T12:15:05.217Z,100367
2018-05-11T12:17:32.104Z,100365
2018-05-11T12:19:58.273Z,100366
2018-05-11T12:22:24.555Z,100360
2018-05-11T12:24:51.532Z,100362
2018-05-11T12:27:18.966Z,100352
2018-05-11T12:29:45.399Z,100354
2018-05-11T12:32:11.778Z,100358
2018-05-11T12:34:38.056Z,100357
2018-05-11T12:37:04.267Z,100361
2018-05-11T12:39:30.493Z,100361
2018-05-11T12:41:56.696Z,100361
2018-05-11T12:44:22.886Z,100353
2018-05-11T12:46:49.921Z,100347
2018-05-11T12:49:16.083Z,100345
2018-05-11T12:51:42.473Z,100352
2018-05-11T12:54:08.652Z,100344
2018-05-11T12:56:35.605Z,100349
2018-05-11T12:59:02.555Z,100345
2018-05-11T13:01:29.467Z,100344
2018-05-11T13:03:55.713Z,100341
2018-05-11T13:06:22.728Z,100340
2018-05-11T13:08:48.964Z,100340
2018-05-11T13:11:15.229Z,100337
2018-05-11T13:13:41.619Z,100330
2018-05-11T13:16:07.859Z,100330
2018-05-11T13:18:34.162Z,100330
2018-05-11T13:21:00.390Z,100324
2018-05-11T13:23:26.590Z,100326
2018-05-11T13:25:52.818Z,100314
2018-05-11T13:28:19.037Z,100320
2018-05-11T13:30:45.422Z,100320
2018-05-11T13:33:12.294Z,100314
2018-05-11T13:35:38.538Z,100315
2018-05-11T13:38:05.495Z,100312
2018-05-11T13:40:32.443Z,100305
2018-05-11T13:42:58.864Z,100307
2018-05-11T13:45:25.127Z,100307
2018-05-11T13:47:51.675Z,100304
2018-05-11T13:50:18.744Z,100304
2018-05-11T13:52:45.899Z,100301
2018-05-11T13:55:12.203Z,100299
2018-05-11T13:57:38.441Z,100296
2018-05-11T14:00:05.404Z,100294
2018-05-11T14:02:31.595Z,100293
2018-05-11T14:04:57.818Z,100294
2018-05-11T14:07:24.011Z,100293
2018-05-11T14:09:50.336Z,100289
2018-05-11T14:12:17.344Z,100283
2018-05-11T14:14:44.296Z,100291
2018-05-11T14:17:10.537Z,100290
2018-05-11T14:19:36.708Z,100286
2018-05-11T14:22:02.956Z,100282
2018-05-11T14:24:29.157Z,100290
2018-05-11T14:26:56.084Z,100285
2018-05-11T14:29:22.639Z,100289
2018-05-11T14:31:48.870Z,100286
2018-05-11T14:34:15.064Z,100283
2018-05-11T14:36:42.042Z,100278
2018-05-11T14:39:08.243Z,100280
2018-05-11T14:41:34.461Z,100270
2018-05-11T14:44:00.624Z,100265
2018-05-11T14:46:26.856Z,100263
2018-05-11T14:48:53.043Z,100261
2018-05-11T14:51:19.978Z,100260
2018-05-11T14:53:47.433Z,100256
2018-05-11T14:56:13.599Z,100260
2018-05-11T14:58:39.869Z,100261
2018-05-11T15:01:06.740Z,100259
2018-05-11T15:03:34.699Z,100251
2018-05-11T15:06:00.902Z,100250
2018-05-11T15:08:29.374Z,100244
2018-05-11T15:10:56.480Z,100242
2018-05-11T15:13:22.696Z,100239
2018-05-11T15:15:48.918Z,100242
2018-05-11T15:18:15.120Z,100238
2018-05-11T15:20:41.357Z,100232
2018-05-11T15:23:07.515Z,100232
2018-05-11T15:25:33.728Z,100233
2018-05-11T15:28:00.644Z,100226
2018-05-11T15:30:26.908Z,100231
2018-05-11T15:32:53.897Z,100229
2018-05-11T15:35:20.150Z,100226
2018-05-11T15:37:47.140Z,100216
2018-05-11T15:40:13.601Z,100216
2018-05-11T15:42:39.818Z,100216
2018-05-11T15:45:06.763Z,100222
2018-05-11T15:47:32.940Z,100219
2018-05-11T15:49:59.186Z,100217
2018-05-11T15:52:25.390Z,100214
2018-05-11T15:54:51.584Z,100207
2018-05-11T15:57:17.817Z,100205
2018-05-11T15:59:44.082Z,100209
2018-05-11T16:02:11.010Z,100203
2018-05-11T16:04:37.219Z,100202
2018-05-11T16:07:03.640Z,100202
2018-05-11T16:09:30.080Z,100201
2018-05-11T16:11:56.255Z,100206
2018-05-11T16:14:22.423Z,100204
2018-05-11T16:16:48.626Z,100202
2018-05-11T16:19:15.598Z,100196
2018-05-11T16:21:41.867Z,100198
2018-05-11T16:24:08.124Z,100199
2018-05-11T16:26:34.336Z,100198
2018-05-11T16:29:00.479Z,100199
2018-05-11T16:31:26.748Z,100198
2018-05-11T16:33:52.980Z,100196
2018-05-11T16:36:19.165Z,100202
2018-05-11T16:38:45.584Z,100203
2018-05-11T16:41:12.491Z,100206
2018-05-11T16:43:38.700Z,100201
2018-05-11T16:46:05.923Z,100198
2018-05-11T16:48:32.868Z,100198
2018-05-11T16:50:59.827Z,100192
2018-05-11T16:53:26.043Z,100193
2018-05-11T16:55:53.002Z,100194
2018-05-11T16:58:19.204Z,100196
2018-05-11T17:00:45.364Z,100195
2018-05-11T17:03:12.289Z,100195
2018-05-11T17:05:38.467Z,100195
2018-05-11T17:08:05.931Z,100192
2018-05-11T17:10:32.164Z,100193
2018-05-11T17:12:58.420Z,100197
2018-05-11T17:15:24.559Z,100199
2018-05-11T17:17:50.734Z,100197
2018-05-11T17:20:21.717Z,100196
2018-05-11T17:22:49.803Z,100199
2018-05-11T17:25:17.540Z,100200
2018-05-11T17:27:44.496Z,100202
2018-05-11T17:30:10.720Z,100201
2018-05-11T17:32:37.747Z,100198
2018-05-11T17:35:04.902Z,100200
2018-05-11T17:37:31.092Z,100199
2018-05-11T17:39:57.413Z,100201
2018-05-11T17:42:23.600Z,100204
2018-05-11T17:44:49.942Z,100206
2018-05-11T17:47:16.148Z,100204
2018-05-11T17:49:42.350Z,100202
2018-05-11T17:52:09.320Z,100204
2018-05-11T17:54:35.750Z,100202
2018-05-11T17:57:02.088Z,100209
2018-05-11T17:59:28.210Z,100208
2018-05-11T18:01:54.588Z,100213
2018-05-11T18:04:20.785Z,100211
2018-05-11T18:06:47.043Z,100214
2018-05-11T18:09:13.266Z,100210
2018-05-11T18:11:39.515Z,100211
2018-05-11T18:14:05.720Z,100218
2018-05-11T18:16:33.241Z,100226
2018-05-11T18:18:59.522Z,100227
2018-05-11T18:21:26.018Z,100223
2018-05-11T18:23:52.281Z,100227
2018-05-11T18:26:19.841Z,100233
2018-05-11T18:28:46.829Z,100233
2018-05-11T18:31:13.213Z,100240
2018-05-11T18:33:39.501Z,100241
2018-05-11T18:36:06.069Z,100242
2018-05-11T18:38:32.250Z,100247
2018-05-11T18:40:58.580Z,100256
2018-05-11T18:43:24.802Z,100255
2018-05-11T18:45:51.032Z,100260
2018-05-11T18:48:18.223Z,100267
2018-05-11T18:50:44.687Z,100264
2018-05-11T18:53:11.131Z,100266
2018-05-11T18:55:37.184Z,100264
2018-05-11T18:58:03.392Z,100274
2018-05-11T19:00:30.374Z,100279
2018-05-11T19:02:56.633Z,100280
2018-05-11T19:05:22.897Z,100287
2018-05-11T19:07:49.385Z,100290
2018-05-11T19:10:16.377Z,100293
2018-05-11T19:12:43.107Z,100294
2018-05-11T19:15:10.283Z,100300
2018-05-11T19:17:36.547Z,100304
2018-05-11T19:20:02.813Z,100314
2018-05-11T19:22:30.124Z,100316
2018-05-11T19:24:56.345Z,100316
2018-05-11T19:27:22.746Z,100323
2018-05-11T19:29:49.106Z,100321
2018-05-11T19:32:15.401Z,100325
2018-05-11T19:34:41.645Z,100327
2018-05-11T19:37:07.853Z,100329
2018-05-11T19:39:34.150Z,100331
2018-05-11T19:42:00.381Z,100337
2018-05-11T19:44:27.344Z,100338
2018-05-11T19:46:53.561Z,100339
2018-05-11T19:49:19.777Z,100341
2018-05-11T19:51:46.792Z,100345
2018-05-11T19:54:12.991Z,100348
2018-05-11T19:56:39.243Z,100345
2018-05-11T19:59:05.640Z,100349
2018-05-11T20:01:32.629Z,100352
2018-05-11T20:03:59.108Z,100354
2018-05-11T20:06:25.420Z,100353
2018-05-11T20:08:51.636Z,100354
2018-05-11T20:11:17.879Z,100355
2018-05-11T20:13:44.101Z,100355
2018-05-11T20:16:10.355Z,100356
2018-05-11T20:18:36.613Z,100355
2018-05-11T20:21:02.965Z,100353
2018-05-11T20:23:29.207Z,100352
2018-05-11T20:25:55.502Z,100348
2018-05-11T20:28:21.717Z,100350
2018-05-11T20:30:48.006Z,100346
2018-05-11T20:33:15.052Z,100350
2018-05-11T20:35:41.308Z,100346
2018-05-11T20:38:07.592Z,100346
2018-05-11T20:40:34.640Z,100344
2018-05-11T20:43:00.886Z,100344
2018-05-11T20:45:27.137Z,100345
2018-05-11T20:47:53.348Z,100345
2018-05-11T20:50:19.619Z,100346
2018-05-11T20:52:45.904Z,100349
2018-05-11T20:55:22.824Z,100351
2018-05-11T20:57:49.065Z,100358
2018-05-11T21:00:15.304Z,100358
2018-05-11T21:02:41.554Z,100359
2018-05-11T21:05:07.764Z,100355
2018-05-11T21:07:33.992Z,100358
2018-05-11T21:10:00.238Z,100360
2018-05-11T21:12:26.438Z,100357
2018-05-11T21:14:52.725Z,100353
2018-05-11T21:17:19.812Z,100349
2018-05-11T21:19:46.017Z,100351
2018-05-11T21:22:13.455Z,100340
2018-05-11T21:24:39.800Z,100346
2018-05-11T21:27:06.082Z,100347
2018-05-11T21:29:32.395Z,100348
2018-05-11T21:31:58.614Z,100337
2018-05-11T21:34:24.826Z,100333
2018-05-11T21:36:51.076Z,100335
2018-05-11T21:39:17.260Z,100335
2018-05-11T21:41:44.205Z,100332
2018-05-11T21:44:11.136Z,100334
2018-05-11T21:46:37.281Z,100344
2018-05-11T21:49:03.678Z,100347
2018-05-11T21:51:30.199Z,100342
2018-05-11T21:53:56.469Z,100344
2018-05-11T21:56:22.613Z,100347
2018-05-11T21:58:48.768Z,100345
2018-05-11T22:01:15.409Z,100344
2018-05-11T22:03:42.172Z,100342
2018-05-11T22:06:09.250Z,100337
2018-05-11T22:08:35.571Z,100330
2018-05-11T22:11:01.764Z,100332
2018-05-11T22:13:28.029Z,100327
2018-05-11T22:16:01.305Z,100331
2018-05-11T22:18:27.919Z,100326
2018-05-11T22:20:54.125Z,100329
2018-05-11T22:23:20.340Z,100331
2018-05-11T22:25:46.481Z,100332
2018-05-11T22:28:13.398Z,100329
2018-05-11T22:30:39.635Z,100329
2018-05-11T22:33:05.783Z,100329
2018-05-11T22:35:31.937Z,100336
2018-05-11T22:37:58.887Z,100334
2018-05-11T22:40:25.095Z,100329
2018-05-11T22:42:51.271Z,100324
2018-05-11T22:45:17.456Z,100324
2018-05-11T22:47:44.065Z,100322
2018-05-11T22:50:10.273Z,100319
2018-05-11T22:52:36.470Z,100318
2018-05-11T22:55:03.407Z,100318
2018-05-11T22:57:29.621Z,100317
2018-05-11T22:59:56.804Z,100316
2018-05-11T23:02:23.775Z,100317
2018-05-11T23:04:49.956Z,100320
2018-05-11T23:07:17.628Z,100315
2018-05-11T23:09:43.855Z,100314
2018-05-11T23:12:10.067Z,100314
2018-05-11T23:14:36.296Z,100305
2018-05-11T23:17:02.525Z,100306
2018-05-11T23:19:28.713Z,100301
2018-05-11T23:21:55.682Z,100302
2018-05-11T23:24:21.909Z,100299
2018-05-11T23:26:48.083Z,100301
2018-05-11T23:29:14.288Z,100300
2018-05-11T23:31:40.546Z,100306
2018-05-11T23:34:06.795Z,100305
2018-05-11T23:36:33.064Z,100298
2018-05-11T23:38:59.279Z,100301
2018-05-11T23:41:25.465Z,100297
2018-05-11T23:43:51.693Z,100295
2018-05-11T23:46:18.625Z,100297
2018-05-11T23:48:45.107Z,100297
2018-05-11T23:51:11.336Z,100295
2018-05-11T23:53:37.557Z,100298
2018-05-11T23:56:03.792Z,100300
2018-05-11T23:58:30.722Z,100297
